sensor_id;sensor_type;location;lat;lon;timestamp;P1;durP1;ratioP1;P2;durP2;ratioP2
11125;SDS011;5617;54.046;10.676;2023-04-24T00:00:37;3.57;;;3.27;;
11125;SDS011;5617;54.046;10.676;2023-04-24T00:02:52;3.33;;;3.03;;
11125;SDS011;5617;54.046;10.676;2023-04-24T00:05:04;3.00;;;2.80;;
11125;SDS011;5617;54.046;10.676;2023-04-24T00:07:16;3.23;;;2.93;;
11125;SDS011;5617;54.046;10.676;2023-04-24T00:09:24;3.43;;;3.13;;
11125;SDS011;5617;54.046;10.676;2023-04-24T00:11:43;3.40;;;3.10;;
11125;SDS011;5617;54.046;10.676;2023-04-24T00:13:59;3.00;;;2.80;;
11125;SDS011;5617;54.046;10.676;2023-04-24T00:16:12;3.63;;;2.90;;
11125;SDS011;5617;54.046;10.676;2023-04-24T00:18:23;3.10;;;2.90;;
11125;SDS011;5617;54.046;10.676;2023-04-24T00:20:32;3.07;;;2.87;;
11125;SDS011;5617;54.046;10.676;2023-04-24T00:22:45;2.80;;;2.60;;
11125;SDS011;5617;54.046;10.676;2023-04-24T00:25:00;3.10;;;2.90;;
11125;SDS011;5617;54.046;10.676;2023-04-24T00:27:16;2.97;;;2.77;;
11125;SDS011;5617;54.046;10.676;2023-04-24T00:29:28;2.93;;;2.73;;
11125;SDS011;5617;54.046;10.676;2023-04-24T00:31:40;2.93;;;2.70;;
11125;SDS011;5617;54.046;10.676;2023-04-24T00:33:53;3.60;;;2.90;;
11125;SDS011;5617;54.046;10.676;2023-04-24T00:36:01;2.90;;;2.70;;
11125;SDS011;5617;54.046;10.676;2023-04-24T00:38:10;3.07;;;2.87;;
11125;SDS011;5617;54.046;10.676;2023-04-24T00:40:21;3.23;;;2.67;;
11125;SDS011;5617;54.046;10.676;2023-04-24T00:42:41;3.20;;;3.00;;
11125;SDS011;5617;54.046;10.676;2023-04-24T00:44:54;2.90;;;2.70;;
11125;SDS011;5617;54.046;10.676;2023-04-24T00:47:04;3.27;;;2.97;;
11125;SDS011;5617;54.046;10.676;2023-04-24T00:49:14;3.23;;;2.93;;
11125;SDS011;5617;54.046;10.676;2023-04-24T00:51:23;3.00;;;2.80;;
11125;SDS011;5617;54.046;10.676;2023-04-24T00:53:34;3.40;;;3.20;;
11125;SDS011;5617;54.046;10.676;2023-04-24T00:55:43;3.97;;;3.40;;
11125;SDS011;5617;54.046;10.676;2023-04-24T00:57:55;3.37;;;3.13;;
11125;SDS011;5617;54.046;10.676;2023-04-24T01:00:05;3.40;;;3.20;;
11125;SDS011;5617;54.046;10.676;2023-04-24T01:02:22;3.30;;;3.10;;
11125;SDS011;5617;54.046;10.676;2023-04-24T01:04:32;3.10;;;2.90;;
11125;SDS011;5617;54.046;10.676;2023-04-24T01:06:42;3.30;;;3.00;;
11125;SDS011;5617;54.046;10.676;2023-04-24T01:08:51;2.73;;;2.53;;
11125;SDS011;5617;54.046;10.676;2023-04-24T01:11:01;3.00;;;2.73;;
11125;SDS011;5617;54.046;10.676;2023-04-24T01:13:16;3.20;;;3.00;;
11125;SDS011;5617;54.046;10.676;2023-04-24T01:15:28;2.57;;;2.37;;
11125;SDS011;5617;54.046;10.676;2023-04-24T01:17:42;2.87;;;2.67;;
11125;SDS011;5617;54.046;10.676;2023-04-24T01:19:51;2.80;;;2.60;;
11125;SDS011;5617;54.046;10.676;2023-04-24T01:22:00;3.00;;;2.70;;
11125;SDS011;5617;54.046;10.676;2023-04-24T01:24:13;2.90;;;2.70;;
11125;SDS011;5617;54.046;10.676;2023-04-24T01:26:26;2.77;;;2.60;;
11125;SDS011;5617;54.046;10.676;2023-04-24T01:28:34;2.80;;;2.60;;
11125;SDS011;5617;54.046;10.676;2023-04-24T01:30:43;3.10;;;2.90;;
11125;SDS011;5617;54.046;10.676;2023-04-24T01:32:55;3.20;;;2.90;;
11125;SDS011;5617;54.046;10.676;2023-04-24T01:35:05;3.03;;;2.80;;
11125;SDS011;5617;54.046;10.676;2023-04-24T01:37:30;2.90;;;2.70;;
11125;SDS011;5617;54.046;10.676;2023-04-24T01:39:45;3.20;;;2.90;;
11125;SDS011;5617;54.046;10.676;2023-04-24T01:41:54;3.03;;;2.70;;
11125;SDS011;5617;54.046;10.676;2023-04-24T01:44:03;3.47;;;3.17;;
11125;SDS011;5617;54.046;10.676;2023-04-24T01:46:12;3.00;;;2.80;;
11125;SDS011;5617;54.046;10.676;2023-04-24T01:48:20;3.33;;;3.03;;
11125;SDS011;5617;54.046;10.676;2023-04-24T01:50:30;3.13;;;2.93;;
11125;SDS011;5617;54.046;10.676;2023-04-24T01:52:38;3.00;;;2.80;;
11125;SDS011;5617;54.046;10.676;2023-04-24T01:54:48;3.00;;;2.80;;
11125;SDS011;5617;54.046;10.676;2023-04-24T01:56:57;3.03;;;2.83;;
11125;SDS011;5617;54.046;10.676;2023-04-24T01:59:08;3.03;;;2.83;;
11125;SDS011;5617;54.046;10.676;2023-04-24T02:01:17;2.90;;;2.70;;
11125;SDS011;5617;54.046;10.676;2023-04-24T02:03:32;3.03;;;2.70;;
11125;SDS011;5617;54.046;10.676;2023-04-24T02:05:43;3.50;;;3.20;;
11125;SDS011;5617;54.046;10.676;2023-04-24T02:07:51;3.03;;;2.83;;
11125;SDS011;5617;54.046;10.676;2023-04-24T02:10:00;3.13;;;2.83;;
11125;SDS011;5617;54.046;10.676;2023-04-24T02:12:12;3.77;;;2.67;;
11125;SDS011;5617;54.046;10.676;2023-04-24T02:14:21;2.80;;;2.60;;
11125;SDS011;5617;54.046;10.676;2023-04-24T02:16:30;2.80;;;2.60;;
11125;SDS011;5617;54.046;10.676;2023-04-24T02:18:40;3.37;;;2.80;;
11125;SDS011;5617;54.046;10.676;2023-04-24T02:20:49;2.93;;;2.60;;
11125;SDS011;5617;54.046;10.676;2023-04-24T02:22:59;2.90;;;2.70;;
11125;SDS011;5617;54.046;10.676;2023-04-24T02:25:13;2.93;;;2.73;;
11125;SDS011;5617;54.046;10.676;2023-04-24T02:27:21;3.00;;;2.70;;
11125;SDS011;5617;54.046;10.676;2023-04-24T02:29:30;2.80;;;2.60;;
11125;SDS011;5617;54.046;10.676;2023-04-24T02:31:38;2.70;;;2.50;;
11125;SDS011;5617;54.046;10.676;2023-04-24T02:33:49;2.63;;;2.43;;
11125;SDS011;5617;54.046;10.676;2023-04-24T02:35:59;2.63;;;2.50;;
11125;SDS011;5617;54.046;10.676;2023-04-24T02:38:10;2.80;;;2.60;;
11125;SDS011;5617;54.046;10.676;2023-04-24T02:40:20;3.50;;;2.57;;
11125;SDS011;5617;54.046;10.676;2023-04-24T02:42:47;2.50;;;2.30;;
11125;SDS011;5617;54.046;10.676;2023-04-24T02:44:53;3.10;;;2.43;;
11125;SDS011;5617;54.046;10.676;2023-04-24T02:47:00;2.67;;;2.40;;
11125;SDS011;5617;54.046;10.676;2023-04-24T02:49:07;2.73;;;2.50;;
11125;SDS011;5617;54.046;10.676;2023-04-24T02:51:13;2.80;;;2.60;;
11125;SDS011;5617;54.046;10.676;2023-04-24T02:53:20;3.50;;;2.63;;
11125;SDS011;5617;54.046;10.676;2023-04-24T02:55:29;2.50;;;2.40;;
11125;SDS011;5617;54.046;10.676;2023-04-24T02:57:35;2.97;;;2.57;;
11125;SDS011;5617;54.046;10.676;2023-04-24T02:59:42;2.77;;;2.53;;
11125;SDS011;5617;54.046;10.676;2023-04-24T03:01:49;3.00;;;2.70;;
11125;SDS011;5617;54.046;10.676;2023-04-24T03:03:55;2.60;;;2.40;;
11125;SDS011;5617;54.046;10.676;2023-04-24T03:06:03;3.33;;;2.60;;
11125;SDS011;5617;54.046;10.676;2023-04-24T03:08:11;3.13;;;2.93;;
11125;SDS011;5617;54.046;10.676;2023-04-24T03:10:17;2.80;;;2.60;;
11125;SDS011;5617;54.046;10.676;2023-04-24T03:12:25;2.93;;;2.73;;
11125;SDS011;5617;54.046;10.676;2023-04-24T03:14:32;2.67;;;2.47;;
11125;SDS011;5617;54.046;10.676;2023-04-24T03:16:39;3.07;;;2.77;;
11125;SDS011;5617;54.046;10.676;2023-04-24T03:18:46;3.13;;;2.70;;
11125;SDS011;5617;54.046;10.676;2023-04-24T03:20:53;2.80;;;2.60;;
11125;SDS011;5617;54.046;10.676;2023-04-24T03:22:59;2.90;;;2.70;;
11125;SDS011;5617;54.046;10.676;2023-04-24T03:25:06;3.00;;;2.70;;
11125;SDS011;5617;54.046;10.676;2023-04-24T03:27:14;2.90;;;2.60;;
11125;SDS011;5617;54.046;10.676;2023-04-24T03:29:22;2.50;;;2.30;;
11125;SDS011;5617;54.046;10.676;2023-04-24T03:31:29;3.10;;;2.90;;
11125;SDS011;5617;54.046;10.676;2023-04-24T03:33:38;3.13;;;2.83;;
11125;SDS011;5617;54.046;10.676;2023-04-24T03:35:45;2.93;;;2.73;;
11125;SDS011;5617;54.046;10.676;2023-04-24T03:37:52;2.87;;;2.67;;
11125;SDS011;5617;54.046;10.676;2023-04-24T03:39:58;2.63;;;2.43;;
11125;SDS011;5617;54.046;10.676;2023-04-24T03:42:05;3.00;;;2.70;;
11125;SDS011;5617;54.046;10.676;2023-04-24T03:44:13;3.30;;;3.00;;
11125;SDS011;5617;54.046;10.676;2023-04-24T03:46:21;3.07;;;2.87;;
11125;SDS011;5617;54.046;10.676;2023-04-24T03:48:28;2.90;;;2.70;;
11125;SDS011;5617;54.046;10.676;2023-04-24T03:50:34;3.63;;;2.80;;
11125;SDS011;5617;54.046;10.676;2023-04-24T03:52:41;3.33;;;3.03;;
11125;SDS011;5617;54.046;10.676;2023-04-24T03:54:50;3.70;;;3.00;;
11125;SDS011;5617;54.046;10.676;2023-04-24T03:56:57;3.20;;;2.90;;
11125;SDS011;5617;54.046;10.676;2023-04-24T03:59:03;3.80;;;3.10;;
11125;SDS011;5617;54.046;10.676;2023-04-24T04:01:10;3.27;;;2.93;;
11125;SDS011;5617;54.046;10.676;2023-04-24T04:03:19;3.43;;;2.80;;
11125;SDS011;5617;54.046;10.676;2023-04-24T04:05:26;2.90;;;2.70;;
11125;SDS011;5617;54.046;10.676;2023-04-24T04:07:32;3.30;;;3.07;;
11125;SDS011;5617;54.046;10.676;2023-04-24T04:09:39;4.07;;;3.17;;
11125;SDS011;5617;54.046;10.676;2023-04-24T04:11:46;3.23;;;3.00;;
11125;SDS011;5617;54.046;10.676;2023-04-24T04:13:53;3.40;;;2.70;;
11125;SDS011;5617;54.046;10.676;2023-04-24T04:15:59;3.00;;;2.80;;
11125;SDS011;5617;54.046;10.676;2023-04-24T04:18:06;3.10;;;2.60;;
11125;SDS011;5617;54.046;10.676;2023-04-24T04:20:14;3.10;;;2.80;;
11125;SDS011;5617;54.046;10.676;2023-04-24T04:22:21;2.87;;;2.67;;
11125;SDS011;5617;54.046;10.676;2023-04-24T04:24:28;3.53;;;2.77;;
11125;SDS011;5617;54.046;10.676;2023-04-24T04:26:35;3.07;;;2.60;;
11125;SDS011;5617;54.046;10.676;2023-04-24T04:28:42;2.80;;;2.60;;
11125;SDS011;5617;54.046;10.676;2023-04-24T04:30:50;2.50;;;2.30;;
11125;SDS011;5617;54.046;10.676;2023-04-24T04:32:58;2.53;;;2.33;;
11125;SDS011;5617;54.046;10.676;2023-04-24T04:35:05;2.43;;;2.23;;
11125;SDS011;5617;54.046;10.676;2023-04-24T04:37:14;2.53;;;2.33;;
11125;SDS011;5617;54.046;10.676;2023-04-24T04:39:21;2.57;;;2.40;;
11125;SDS011;5617;54.046;10.676;2023-04-24T04:41:28;2.50;;;2.30;;
11125;SDS011;5617;54.046;10.676;2023-04-24T04:43:35;2.67;;;2.47;;
11125;SDS011;5617;54.046;10.676;2023-04-24T04:45:43;2.50;;;2.30;;
11125;SDS011;5617;54.046;10.676;2023-04-24T04:47:49;2.30;;;2.10;;
11125;SDS011;5617;54.046;10.676;2023-04-24T04:49:56;2.20;;;2.00;;
11125;SDS011;5617;54.046;10.676;2023-04-24T04:52:03;2.10;;;2.00;;
11125;SDS011;5617;54.046;10.676;2023-04-24T04:54:11;2.00;;;1.90;;
11125;SDS011;5617;54.046;10.676;2023-04-24T04:56:18;2.00;;;1.80;;
11125;SDS011;5617;54.046;10.676;2023-04-24T04:58:24;1.90;;;1.67;;
11125;SDS011;5617;54.046;10.676;2023-04-24T05:00:31;1.97;;;1.87;;
11125;SDS011;5617;54.046;10.676;2023-04-24T05:02:40;1.93;;;1.40;;
11125;SDS011;5617;54.046;10.676;2023-04-24T05:04:47;1.70;;;1.60;;
11125;SDS011;5617;54.046;10.676;2023-04-24T05:06:54;1.70;;;1.60;;
11125;SDS011;5617;54.046;10.676;2023-04-24T05:09:01;1.47;;;1.37;;
11125;SDS011;5617;54.046;10.676;2023-04-24T05:11:10;1.53;;;1.40;;
11125;SDS011;5617;54.046;10.676;2023-04-24T05:13:16;1.50;;;1.40;;
11125;SDS011;5617;54.046;10.676;2023-04-24T05:15:23;1.40;;;1.40;;
11125;SDS011;5617;54.046;10.676;2023-04-24T05:17:30;1.80;;;1.40;;
11125;SDS011;5617;54.046;10.676;2023-04-24T05:19:36;1.70;;;1.40;;
11125;SDS011;5617;54.046;10.676;2023-04-24T05:21:43;1.63;;;1.53;;
11125;SDS011;5617;54.046;10.676;2023-04-24T05:23:50;1.37;;;1.27;;
11125;SDS011;5617;54.046;10.676;2023-04-24T05:25:57;2.20;;;1.40;;
11125;SDS011;5617;54.046;10.676;2023-04-24T05:28:05;2.37;;;1.47;;
11125;SDS011;5617;54.046;10.676;2023-04-24T05:30:12;1.73;;;1.20;;
11125;SDS011;5617;54.046;10.676;2023-04-24T05:32:19;1.40;;;1.30;;
11125;SDS011;5617;54.046;10.676;2023-04-24T05:34:25;1.77;;;1.50;;
11125;SDS011;5617;54.046;10.676;2023-04-24T05:36:32;1.80;;;1.70;;
11125;SDS011;5617;54.046;10.676;2023-04-24T05:38:39;1.67;;;1.40;;
11125;SDS011;5617;54.046;10.676;2023-04-24T05:40:45;1.50;;;1.40;;
11125;SDS011;5617;54.046;10.676;2023-04-24T05:42:52;1.53;;;1.43;;
11125;SDS011;5617;54.046;10.676;2023-04-24T05:45:00;1.50;;;1.40;;
11125;SDS011;5617;54.046;10.676;2023-04-24T05:47:07;1.57;;;1.47;;
11125;SDS011;5617;54.046;10.676;2023-04-24T05:49:14;2.47;;;1.17;;
11125;SDS011;5617;54.046;10.676;2023-04-24T05:51:20;1.40;;;1.30;;
11125;SDS011;5617;54.046;10.676;2023-04-24T05:53:27;1.23;;;1.23;;
11125;SDS011;5617;54.046;10.676;2023-04-24T05:55:34;1.40;;;1.30;;
11125;SDS011;5617;54.046;10.676;2023-04-24T05:57:40;1.30;;;1.20;;
11125;SDS011;5617;54.046;10.676;2023-04-24T05:59:47;1.53;;;1.20;;
11125;SDS011;5617;54.046;10.676;2023-04-24T06:01:55;1.20;;;1.20;;
11125;SDS011;5617;54.046;10.676;2023-04-24T06:04:02;1.23;;;1.20;;
11125;SDS011;5617;54.046;10.676;2023-04-24T06:06:09;2.30;;;1.30;;
11125;SDS011;5617;54.046;10.676;2023-04-24T06:08:15;1.27;;;1.17;;
11125;SDS011;5617;54.046;10.676;2023-04-24T06:10:22;1.23;;;1.20;;
11125;SDS011;5617;54.046;10.676;2023-04-24T06:12:29;0.90;;;0.90;;
11125;SDS011;5617;54.046;10.676;2023-04-24T06:14:36;1.10;;;1.10;;
11125;SDS011;5617;54.046;10.676;2023-04-24T06:16:44;0.90;;;0.90;;
11125;SDS011;5617;54.046;10.676;2023-04-24T06:18:52;1.23;;;1.13;;
11125;SDS011;5617;54.046;10.676;2023-04-24T06:20:59;1.10;;;1.10;;
11125;SDS011;5617;54.046;10.676;2023-04-24T06:23:05;1.30;;;1.20;;
11125;SDS011;5617;54.046;10.676;2023-04-24T06:25:12;0.90;;;0.90;;
11125;SDS011;5617;54.046;10.676;2023-04-24T06:27:19;1.00;;;1.00;;
11125;SDS011;5617;54.046;10.676;2023-04-24T06:29:25;1.30;;;1.20;;
11125;SDS011;5617;54.046;10.676;2023-04-24T06:31:32;1.17;;;1.17;;
11125;SDS011;5617;54.046;10.676;2023-04-24T06:33:42;2.13;;;1.03;;
11125;SDS011;5617;54.046;10.676;2023-04-24T06:35:50;0.87;;;0.87;;
11125;SDS011;5617;54.046;10.676;2023-04-24T06:37:57;1.43;;;1.10;;
11125;SDS011;5617;54.046;10.676;2023-04-24T06:40:04;1.73;;;1.00;;
11125;SDS011;5617;54.046;10.676;2023-04-24T06:42:11;1.00;;;1.00;;
11125;SDS011;5617;54.046;10.676;2023-04-24T06:44:18;0.90;;;0.90;;
11125;SDS011;5617;54.046;10.676;2023-04-24T06:46:25;1.00;;;0.90;;
11125;SDS011;5617;54.046;10.676;2023-04-24T06:48:32;0.80;;;0.80;;
11125;SDS011;5617;54.046;10.676;2023-04-24T06:50:39;0.73;;;0.73;;
11125;SDS011;5617;54.046;10.676;2023-04-24T06:52:47;2.07;;;0.90;;
11125;SDS011;5617;54.046;10.676;2023-04-24T06:54:59;1.03;;;0.80;;
11125;SDS011;5617;54.046;10.676;2023-04-24T06:57:06;1.10;;;1.00;;
11125;SDS011;5617;54.046;10.676;2023-04-24T06:59:15;0.73;;;0.73;;
11125;SDS011;5617;54.046;10.676;2023-04-24T07:01:22;1.00;;;1.00;;
11125;SDS011;5617;54.046;10.676;2023-04-24T07:03:28;0.80;;;0.80;;
11125;SDS011;5617;54.046;10.676;2023-04-24T07:05:35;1.00;;;1.00;;
11125;SDS011;5617;54.046;10.676;2023-04-24T07:07:43;0.90;;;0.90;;
11125;SDS011;5617;54.046;10.676;2023-04-24T07:09:51;1.23;;;0.97;;
11125;SDS011;5617;54.046;10.676;2023-04-24T07:11:59;1.37;;;0.83;;
11125;SDS011;5617;54.046;10.676;2023-04-24T07:14:08;1.23;;;0.80;;
11125;SDS011;5617;54.046;10.676;2023-04-24T07:16:15;0.97;;;0.93;;
11125;SDS011;5617;54.046;10.676;2023-04-24T07:18:22;0.87;;;0.87;;
11125;SDS011;5617;54.046;10.676;2023-04-24T07:20:29;1.00;;;1.00;;
11125;SDS011;5617;54.046;10.676;2023-04-24T07:22:36;3.13;;;1.00;;
11125;SDS011;5617;54.046;10.676;2023-04-24T07:24:46;1.40;;;1.10;;
11125;SDS011;5617;54.046;10.676;2023-04-24T07:26:54;1.17;;;1.07;;
11125;SDS011;5617;54.046;10.676;2023-04-24T07:29:02;0.90;;;0.90;;
11125;SDS011;5617;54.046;10.676;2023-04-24T07:31:08;1.37;;;1.00;;
11125;SDS011;5617;54.046;10.676;2023-04-24T07:33:16;1.10;;;1.00;;
11125;SDS011;5617;54.046;10.676;2023-04-24T07:35:23;0.80;;;0.80;;
11125;SDS011;5617;54.046;10.676;2023-04-24T07:37:31;1.20;;;1.10;;
11125;SDS011;5617;54.046;10.676;2023-04-24T07:39:37;0.73;;;0.73;;
11125;SDS011;5617;54.046;10.676;2023-04-24T07:41:44;1.43;;;0.80;;
11125;SDS011;5617;54.046;10.676;2023-04-24T07:43:52;0.90;;;0.90;;
11125;SDS011;5617;54.046;10.676;2023-04-24T07:45:59;1.00;;;1.00;;
11125;SDS011;5617;54.046;10.676;2023-04-24T07:48:05;1.20;;;1.10;;
11125;SDS011;5617;54.046;10.676;2023-04-24T07:50:13;2.60;;;1.17;;
11125;SDS011;5617;54.046;10.676;2023-04-24T07:52:20;1.70;;;1.10;;
11125;SDS011;5617;54.046;10.676;2023-04-24T07:54:27;1.03;;;0.80;;
11125;SDS011;5617;54.046;10.676;2023-04-24T07:56:34;1.87;;;1.13;;
11125;SDS011;5617;54.046;10.676;2023-04-24T07:58:43;1.33;;;0.83;;
11125;SDS011;5617;54.046;10.676;2023-04-24T08:00:51;0.90;;;0.90;;
11125;SDS011;5617;54.046;10.676;2023-04-24T08:02:58;1.00;;;0.90;;
11125;SDS011;5617;54.046;10.676;2023-04-24T08:05:05;1.27;;;1.17;;
11125;SDS011;5617;54.046;10.676;2023-04-24T08:07:13;0.93;;;0.93;;
11125;SDS011;5617;54.046;10.676;2023-04-24T08:09:19;1.03;;;1.00;;
11125;SDS011;5617;54.046;10.676;2023-04-24T08:11:26;1.33;;;1.23;;
11125;SDS011;5617;54.046;10.676;2023-04-24T08:13:33;1.43;;;0.90;;
11125;SDS011;5617;54.046;10.676;2023-04-24T08:15:40;1.10;;;1.00;;
11125;SDS011;5617;54.046;10.676;2023-04-24T08:17:48;1.37;;;1.27;;
11125;SDS011;5617;54.046;10.676;2023-04-24T08:19:55;1.00;;;0.93;;
11125;SDS011;5617;54.046;10.676;2023-04-24T08:22:06;0.77;;;0.77;;
11125;SDS011;5617;54.046;10.676;2023-04-24T08:24:12;0.83;;;0.83;;
11125;SDS011;5617;54.046;10.676;2023-04-24T08:26:19;0.83;;;0.83;;
11125;SDS011;5617;54.046;10.676;2023-04-24T08:28:26;1.33;;;0.90;;
11125;SDS011;5617;54.046;10.676;2023-04-24T08:30:33;0.90;;;0.90;;
11125;SDS011;5617;54.046;10.676;2023-04-24T08:32:39;0.80;;;0.80;;
11125;SDS011;5617;54.046;10.676;2023-04-24T08:34:47;0.80;;;0.80;;
11125;SDS011;5617;54.046;10.676;2023-04-24T08:36:54;0.90;;;0.90;;
11125;SDS011;5617;54.046;10.676;2023-04-24T08:39:01;0.90;;;0.90;;
11125;SDS011;5617;54.046;10.676;2023-04-24T08:41:08;1.03;;;0.93;;
11125;SDS011;5617;54.046;10.676;2023-04-24T08:43:15;0.90;;;0.90;;
11125;SDS011;5617;54.046;10.676;2023-04-24T08:45:23;0.90;;;0.90;;
11125;SDS011;5617;54.046;10.676;2023-04-24T08:47:31;0.90;;;0.90;;
11125;SDS011;5617;54.046;10.676;2023-04-24T08:49:39;1.00;;;0.90;;
11125;SDS011;5617;54.046;10.676;2023-04-24T08:51:47;0.90;;;0.90;;
11125;SDS011;5617;54.046;10.676;2023-04-24T08:53:55;1.10;;;1.10;;
11125;SDS011;5617;54.046;10.676;2023-04-24T08:56:03;1.07;;;0.97;;
11125;SDS011;5617;54.046;10.676;2023-04-24T08:58:10;0.97;;;0.97;;
11125;SDS011;5617;54.046;10.676;2023-04-24T09:00:18;1.13;;;1.13;;
11125;SDS011;5617;54.046;10.676;2023-04-24T09:02:25;0.90;;;0.90;;
11125;SDS011;5617;54.046;10.676;2023-04-24T09:04:32;1.07;;;0.80;;
11125;SDS011;5617;54.046;10.676;2023-04-24T09:06:40;0.80;;;0.80;;
11125;SDS011;5617;54.046;10.676;2023-04-24T09:08:49;0.93;;;0.93;;
11125;SDS011;5617;54.046;10.676;2023-04-24T09:11:00;1.30;;;1.20;;
11125;SDS011;5617;54.046;10.676;2023-04-24T09:13:08;1.10;;;1.00;;
11125;SDS011;5617;54.046;10.676;2023-04-24T09:15:16;1.43;;;1.00;;
11125;SDS011;5617;54.046;10.676;2023-04-24T09:17:23;0.90;;;0.90;;
11125;SDS011;5617;54.046;10.676;2023-04-24T09:19:32;0.90;;;0.90;;
11125;SDS011;5617;54.046;10.676;2023-04-24T09:21:38;1.20;;;1.10;;
11125;SDS011;5617;54.046;10.676;2023-04-24T09:23:47;1.30;;;1.20;;
11125;SDS011;5617;54.046;10.676;2023-04-24T09:26:05;1.20;;;1.20;;
11125;SDS011;5617;54.046;10.676;2023-04-24T09:28:14;1.03;;;1.00;;
11125;SDS011;5617;54.046;10.676;2023-04-24T09:30:22;1.50;;;1.23;;
11125;SDS011;5617;54.046;10.676;2023-04-24T09:32:29;1.10;;;1.10;;
11125;SDS011;5617;54.046;10.676;2023-04-24T09:34:36;1.50;;;1.40;;
11125;SDS011;5617;54.046;10.676;2023-04-24T09:36:43;1.53;;;1.20;;
11125;SDS011;5617;54.046;10.676;2023-04-24T09:38:50;1.57;;;1.47;;
11125;SDS011;5617;54.046;10.676;2023-04-24T09:41:06;1.90;;;1.10;;
11125;SDS011;5617;54.046;10.676;2023-04-24T09:43:14;1.50;;;1.37;;
11125;SDS011;5617;54.046;10.676;2023-04-24T09:45:21;1.70;;;1.60;;
11125;SDS011;5617;54.046;10.676;2023-04-24T09:47:28;1.43;;;1.43;;
11125;SDS011;5617;54.046;10.676;2023-04-24T09:49:42;1.60;;;1.50;;
11125;SDS011;5617;54.046;10.676;2023-04-24T09:51:48;1.57;;;1.47;;
11125;SDS011;5617;54.046;10.676;2023-04-24T09:53:55;1.80;;;1.70;;
11125;SDS011;5617;54.046;10.676;2023-04-24T09:56:02;1.60;;;1.50;;
11125;SDS011;5617;54.046;10.676;2023-04-24T09:58:18;1.90;;;1.80;;
11125;SDS011;5617;54.046;10.676;2023-04-24T10:00:32;1.80;;;1.70;;
11125;SDS011;5617;54.046;10.676;2023-04-24T10:02:41;2.20;;;2.10;;
11125;SDS011;5617;54.046;10.676;2023-04-24T10:04:54;2.33;;;2.13;;
11125;SDS011;5617;54.046;10.676;2023-04-24T10:07:02;2.43;;;2.23;;
11125;SDS011;5617;54.046;10.676;2023-04-24T10:09:12;1.93;;;1.83;;
11125;SDS011;5617;54.046;10.676;2023-04-24T10:11:20;1.80;;;1.70;;
11125;SDS011;5617;54.046;10.676;2023-04-24T10:13:30;2.10;;;2.00;;
11125;SDS011;5617;54.046;10.676;2023-04-24T10:15:40;2.20;;;2.10;;
11125;SDS011;5617;54.046;10.676;2023-04-24T10:17:49;2.10;;;2.00;;
11125;SDS011;5617;54.046;10.676;2023-04-24T10:19:59;2.30;;;2.20;;
11125;SDS011;5617;54.046;10.676;2023-04-24T10:22:08;2.47;;;2.27;;
11125;SDS011;5617;54.046;10.676;2023-04-24T10:24:18;2.37;;;2.27;;
11125;SDS011;5617;54.046;10.676;2023-04-24T10:26:27;2.50;;;2.30;;
11125;SDS011;5617;54.046;10.676;2023-04-24T10:28:37;2.50;;;2.40;;
11125;SDS011;5617;54.046;10.676;2023-04-24T10:30:48;2.73;;;2.53;;
11125;SDS011;5617;54.046;10.676;2023-04-24T10:32:59;2.60;;;2.40;;
11125;SDS011;5617;54.046;10.676;2023-04-24T10:35:07;3.53;;;2.90;;
11125;SDS011;5617;54.046;10.676;2023-04-24T10:37:15;3.57;;;2.77;;
11125;SDS011;5617;54.046;10.676;2023-04-24T10:39:23;3.20;;;3.00;;
11125;SDS011;5617;54.046;10.676;2023-04-24T10:41:32;3.20;;;3.00;;
11125;SDS011;5617;54.046;10.676;2023-04-24T10:43:42;2.80;;;2.70;;
11125;SDS011;5617;54.046;10.676;2023-04-24T10:46:00;2.93;;;2.73;;
11125;SDS011;5617;54.046;10.676;2023-04-24T10:48:10;3.40;;;3.10;;
11125;SDS011;5617;54.046;10.676;2023-04-24T10:50:20;3.00;;;2.80;;
11125;SDS011;5617;54.046;10.676;2023-04-24T10:52:43;3.30;;;3.10;;
11125;SDS011;5617;54.046;10.676;2023-04-24T10:54:51;3.13;;;2.93;;
11125;SDS011;5617;54.046;10.676;2023-04-24T10:59:38;2.80;;;2.60;;
11125;SDS011;5617;54.046;10.676;2023-04-24T11:01:46;2.17;;;2.03;;
11125;SDS011;5617;54.046;10.676;2023-04-24T11:04:01;2.60;;;2.40;;
11125;SDS011;5617;54.046;10.676;2023-04-24T11:06:11;2.43;;;2.30;;
11125;SDS011;5617;54.046;10.676;2023-04-24T11:08:24;2.30;;;2.20;;
11125;SDS011;5617;54.046;10.676;2023-04-24T11:10:37;2.17;;;2.07;;
11125;SDS011;5617;54.046;10.676;2023-04-24T11:12:46;2.30;;;2.10;;
11125;SDS011;5617;54.046;10.676;2023-04-24T11:15:02;2.03;;;1.93;;
11125;SDS011;5617;54.046;10.676;2023-04-24T11:17:26;2.07;;;1.97;;
11125;SDS011;5617;54.046;10.676;2023-04-24T11:19:36;2.70;;;2.50;;
11125;SDS011;5617;54.046;10.676;2023-04-24T11:21:47;2.67;;;2.47;;
11125;SDS011;5617;54.046;10.676;2023-04-24T11:23:56;2.30;;;2.20;;
11125;SDS011;5617;54.046;10.676;2023-04-24T11:26:11;3.00;;;2.80;;
11125;SDS011;5617;54.046;10.676;2023-04-24T11:28:19;2.77;;;2.57;;
11125;SDS011;5617;54.046;10.676;2023-04-24T11:30:29;3.00;;;2.80;;
11125;SDS011;5617;54.046;10.676;2023-04-24T11:32:38;2.93;;;2.50;;
11125;SDS011;5617;54.046;10.676;2023-04-24T11:34:47;3.00;;;2.80;;
11125;SDS011;5617;54.046;10.676;2023-04-24T11:36:57;3.07;;;2.87;;
11125;SDS011;5617;54.046;10.676;2023-04-24T11:39:05;2.67;;;2.47;;
11125;SDS011;5617;54.046;10.676;2023-04-24T11:41:13;2.93;;;2.70;;
11125;SDS011;5617;54.046;10.676;2023-04-24T11:43:21;2.90;;;2.70;;
11125;SDS011;5617;54.046;10.676;2023-04-24T11:45:31;2.70;;;2.50;;
11125;SDS011;5617;54.046;10.676;2023-04-24T11:47:39;3.43;;;3.13;;
11125;SDS011;5617;54.046;10.676;2023-04-24T11:49:49;2.97;;;2.70;;
11125;SDS011;5617;54.046;10.676;2023-04-24T11:51:57;3.07;;;2.87;;
11125;SDS011;5617;54.046;10.676;2023-04-24T11:54:07;3.40;;;3.20;;
11125;SDS011;5617;54.046;10.676;2023-04-24T11:56:17;3.10;;;2.87;;
11125;SDS011;5617;54.046;10.676;2023-04-24T11:58:26;3.53;;;3.23;;
11125;SDS011;5617;54.046;10.676;2023-04-24T12:00:35;3.70;;;3.40;;
11125;SDS011;5617;54.046;10.676;2023-04-24T12:02:44;3.87;;;3.57;;
11125;SDS011;5617;54.046;10.676;2023-04-24T12:04:52;3.97;;;3.20;;
11125;SDS011;5617;54.046;10.676;2023-04-24T12:07:02;3.73;;;3.40;;
11125;SDS011;5617;54.046;10.676;2023-04-24T12:09:12;4.10;;;3.70;;
11125;SDS011;5617;54.046;10.676;2023-04-24T12:11:25;3.50;;;3.20;;
11125;SDS011;5617;54.046;10.676;2023-04-24T12:13:33;3.90;;;3.60;;
11125;SDS011;5617;54.046;10.676;2023-04-24T12:15:42;4.07;;;3.73;;
11125;SDS011;5617;54.046;10.676;2023-04-24T12:17:51;4.70;;;3.97;;
11125;SDS011;5617;54.046;10.676;2023-04-24T12:20:00;4.57;;;4.17;;
11125;SDS011;5617;54.046;10.676;2023-04-24T12:22:09;4.30;;;4.00;;
11125;SDS011;5617;54.046;10.676;2023-04-24T12:24:17;4.67;;;4.10;;
11125;SDS011;5617;54.046;10.676;2023-04-24T12:26:26;4.50;;;4.10;;
11125;SDS011;5617;54.046;10.676;2023-04-24T12:28:35;4.67;;;4.27;;
11125;SDS011;5617;54.046;10.676;2023-04-24T12:30:46;5.27;;;4.43;;
11125;SDS011;5617;54.046;10.676;2023-04-24T12:32:56;5.10;;;4.60;;
11125;SDS011;5617;54.046;10.676;2023-04-24T12:35:06;4.97;;;4.57;;
11125;SDS011;5617;54.046;10.676;2023-04-24T12:37:14;5.50;;;4.80;;
11125;SDS011;5617;54.046;10.676;2023-04-24T12:39:21;5.10;;;4.70;;
11125;SDS011;5617;54.046;10.676;2023-04-24T12:41:32;5.93;;;5.33;;
11125;SDS011;5617;54.046;10.676;2023-04-24T12:43:50;4.70;;;4.30;;
11125;SDS011;5617;54.046;10.676;2023-04-24T12:46:00;5.10;;;4.70;;
11125;SDS011;5617;54.046;10.676;2023-04-24T12:48:08;5.93;;;5.03;;
11125;SDS011;5617;54.046;10.676;2023-04-24T12:50:16;4.60;;;4.20;;
11125;SDS011;5617;54.046;10.676;2023-04-24T12:52:25;5.53;;;5.03;;
11125;SDS011;5617;54.046;10.676;2023-04-24T12:54:34;4.87;;;4.47;;
11125;SDS011;5617;54.046;10.676;2023-04-24T12:56:42;5.10;;;4.60;;
11125;SDS011;5617;54.046;10.676;2023-04-24T12:58:49;4.93;;;4.53;;